createdAt,value
2023-03-11T00:04:37.567Z,99015.50
2023-03-11T00:09:39.148Z,99026.63
2023-03-11T00:14:40.473Z,99025.56
2023-03-11T00:19:42.100Z,99033.25
2023-03-11T00:24:43.821Z,99038.19
2023-03-11T00:29:45.251Z,99049.84
2023-03-11T00:34:46.596Z,99056.31
2023-03-11T00:39:48.197Z,99060.38
2023-03-11T00:44:49.678Z,99044.88
2023-03-11T00:49:51.113Z,99044.75
2023-03-11T00:54:52.485Z,99035.88
2023-03-11T00:59:53.808Z,99049.53
2023-03-11T01:04:55.831Z,99070.53
2023-03-11T01:09:57.274Z,99091.19
2023-03-11T01:14:58.715Z,99099.56
2023-03-11T01:20:00.187Z,99103.75
2023-03-11T01:25:01.982Z,99097.63
2023-03-11T01:30:03.951Z,99092.28
2023-03-11T01:35:05.730Z,99088.78
2023-03-11T01:40:09.484Z,99090.69
2023-03-11T01:45:28.827Z,99097.09
2023-03-11T01:50:40.316Z,99104.41
2023-03-11T01:55:42.640Z,99114.50
2023-03-11T02:00:44.548Z,99113.41
2023-03-11T02:05:47.430Z,99136.59
2023-03-11T02:10:52.047Z,99133.97
2023-03-11T02:15:53.526Z,99126.28
2023-03-11T02:21:10.333Z,99115.16
2023-03-11T02:26:32.715Z,99115.28
2023-03-11T02:31:36.831Z,99095.06
2023-03-11T02:36:41.924Z,99107.16
2023-03-11T02:41:46.834Z,99098.75
2023-03-11T02:46:48.311Z,99103.78
2023-03-11T02:51:49.682Z,99116.00
2023-03-11T02:56:51.122Z,99125.56
2023-03-11T03:01:52.508Z,99130.94
2023-03-11T03:06:53.902Z,99131.13
2023-03-11T03:11:55.585Z,99149.34
2023-03-11T03:16:57.570Z,99164.78
2023-03-11T03:21:59.047Z,99166.91
2023-03-11T03:27:00.865Z,99170.72
2023-03-11T03:32:02.276Z,99173.66
2023-03-11T03:37:04.026Z,99177.47
2023-03-11T03:42:05.655Z,99181.97
2023-03-11T03:47:07.422Z,99184.59
2023-03-11T03:52:09.949Z,99193.19
2023-03-11T03:57:11.375Z,99215.97
2023-03-11T04:02:12.772Z,99200.75
2023-03-11T04:07:14.176Z,99210.69
2023-03-11T04:12:17.406Z,99206.47
2023-03-11T04:17:18.836Z,99210.91
2023-03-11T04:22:20.286Z,99226.66
2023-03-11T04:27:21.723Z,99236.97
2023-03-11T04:32:23.315Z,99238.03
2023-03-11T04:37:28.236Z,99248.59
2023-03-11T04:42:29.663Z,99251.88
2023-03-11T04:47:31.022Z,99246.09
2023-03-11T04:52:32.353Z,99251.16
2023-03-11T04:57:34.004Z,99253.06
2023-03-11T05:02:35.452Z,99260.41
2023-03-11T05:07:37.231Z,99266.94
2023-03-11T05:12:38.687Z,99257.25
2023-03-11T05:17:40.145Z,99289.25
2023-03-11T05:22:41.462Z,99281.06
2023-03-11T05:27:42.849Z,99281.06
2023-03-11T05:32:44.813Z,99285.81
2023-03-11T05:37:49.612Z,99306.47
2023-03-11T05:42:51.708Z,99314.72
2023-03-11T05:47:53.036Z,99309.91
2023-03-11T05:52:54.385Z,99310.56
2023-03-11T05:57:55.879Z,99307.59
2023-03-11T06:02:57.256Z,99310.56
2023-03-11T06:07:58.638Z,99332.69
2023-03-11T06:12:59.979Z,99332.69
2023-03-11T06:18:01.605Z,99330.69
2023-03-11T06:23:02.934Z,99338.81
2023-03-11T06:28:04.975Z,99351.66
2023-03-11T06:33:06.288Z,99350.41
2023-03-11T06:38:07.713Z,99351.34
2023-03-11T06:43:09.039Z,99370.72
2023-03-11T06:48:10.553Z,99380.66
2023-03-11T06:53:12.017Z,99382.38
2023-03-11T06:58:13.378Z,99402.34
2023-03-11T07:03:14.732Z,99408.38
2023-03-11T07:08:16.721Z,99403.41
2023-03-11T07:13:18.098Z,99407.31
2023-03-11T07:18:19.949Z,99413.44
2023-03-11T07:23:21.764Z,99423.63
2023-03-11T07:28:24.786Z,99423.94
2023-03-11T07:33:26.237Z,99436.34
2023-03-11T07:38:27.660Z,99459.78
2023-03-11T07:43:29.040Z,99450.91
2023-03-11T07:48:30.900Z,99469.72
2023-03-11T07:53:33.299Z,99475.53
2023-03-11T07:58:34.832Z,99490.53
2023-03-11T08:03:37.116Z,99499.56
2023-03-11T08:08:38.519Z,99499.66
2023-03-11T08:13:40.828Z,99499.97
2023-03-11T08:18:43.110Z,99509.38
2023-03-11T08:23:47.433Z,99522.19
2023-03-11T08:28:49.693Z,99527.94
2023-03-11T08:33:53.750Z,99553.31
2023-03-11T08:38:55.434Z,99544.00
2023-03-11T08:43:57.238Z,99563.75
2023-03-11T08:49:01.319Z,99559.69
2023-03-11T08:54:03.385Z,99565.34
2023-03-11T08:59:04.772Z,99550.94
2023-03-11T09:04:06.214Z,99554.50
2023-03-11T09:09:07.532Z,99565.94
2023-03-11T09:14:08.877Z,99577.22
2023-03-11T09:19:10.267Z,99583.16
2023-03-11T09:24:11.635Z,99581.56
2023-03-11T09:29:13.780Z,99571.78
2023-03-11T09:34:16.226Z,99563.44
2023-03-11T09:39:17.796Z,99591.50
2023-03-11T09:44:38.578Z,99578.81
2023-03-11T09:49:45.556Z,99584.47
2023-03-11T09:54:50.841Z,99584.63
2023-03-11T09:59:52.385Z,99575.03
2023-03-11T10:05:21.380Z,99569.28
2023-03-11T10:10:24.589Z,99580.50
2023-03-11T10:15:52.508Z,99574.28
2023-03-11T10:21:11.755Z,99580.91
2023-03-11T10:26:37.251Z,99590.16
2023-03-11T10:32:24.339Z,99588.88
2023-03-11T10:37:48.804Z,99580.78
2023-03-11T10:42:53.186Z,99585.88
2023-03-11T10:47:58.166Z,99591.66
2023-03-11T10:53:19.710Z,99581.56
2023-03-11T10:58:28.068Z,99590.16
2023-03-11T11:03:29.824Z,99593.41
2023-03-11T11:08:33.121Z,99593.09
2023-03-11T11:13:35.328Z,99608.09
2023-03-11T11:18:48.215Z,99600.03
2023-03-11T11:24:09.728Z,99598.47
2023-03-11T11:29:11.061Z,99603.91
2023-03-11T11:34:33.860Z,99596.88
2023-03-11T11:39:52.847Z,99602.66
2023-03-11T11:45:19.364Z,99609.28
2023-03-11T11:50:31.627Z,99608.69
2023-03-11T11:55:33.950Z,99609.41
2023-03-11T12:01:03.393Z,99613.72
2023-03-11T12:06:16.860Z,99609.91
2023-03-11T12:11:26.609Z,99597.50
2023-03-11T12:16:47.672Z,99591.34
2023-03-11T12:22:30.707Z,99600.75
2023-03-11T12:27:55.862Z,99595.59
2023-03-11T12:33:06.096Z,99602.19
2023-03-11T12:38:21.300Z,99597.38
2023-03-11T12:43:48.789Z,99595.31
2023-03-11T12:49:07.221Z,99601.13
2023-03-11T12:54:27.347Z,99593.38
2023-03-11T12:59:43.783Z,99599.88
2023-03-11T13:04:59.092Z,99604.63
2023-03-11T13:10:12.617Z,99616.50
2023-03-11T13:15:27.479Z,99609.31
2023-03-11T13:20:43.892Z,99609.69
2023-03-11T13:25:48.071Z,99619.91
2023-03-11T13:31:13.946Z,99625.31
2023-03-11T13:36:29.189Z,99626.72
2023-03-11T13:41:34.778Z,99623.41
2023-03-11T13:46:40.056Z,99639.53
2023-03-11T13:51:45.532Z,99635.91
2023-03-11T13:56:53.910Z,99634.84
2023-03-11T14:02:15.473Z,99653.88
2023-03-11T14:07:34.111Z,99652.81
2023-03-11T14:12:35.603Z,99661.84
2023-03-11T14:17:36.962Z,99649.84
2023-03-11T14:22:38.459Z,99646.28
2023-03-11T14:27:46.343Z,99651.31
2023-03-11T14:33:20.439Z,99657.34
2023-03-11T14:38:25.301Z,99648.03
2023-03-11T14:43:29.387Z,99639.59
2023-03-11T14:48:40.541Z,99631.81
2023-03-11T14:53:48.331Z,99642.78
2023-03-11T14:59:07.250Z,99647.72
2023-03-11T15:04:14.099Z,99646.63
2023-03-11T15:09:20.755Z,99648.66
2023-03-11T15:14:28.128Z,99647.19
2023-03-11T15:19:31.326Z,99657.66
2023-03-11T15:24:33.768Z,99648.44
2023-03-11T15:29:36.181Z,99652.13
2023-03-11T15:34:38.463Z,99643.78
2023-03-11T15:39:44.592Z,99661.94
2023-03-11T15:45:11.993Z,99662.66
2023-03-11T15:50:25.260Z,99660.00
2023-03-11T15:55:28.190Z,99671.44
2023-03-11T16:00:29.618Z,99667.22
2023-03-11T16:05:30.994Z,99683.84
2023-03-11T16:10:32.479Z,99679.22
2023-03-11T16:15:36.843Z,99683.56
2023-03-11T16:20:51.626Z,99687.38
2023-03-11T16:26:00.420Z,99685.69
2023-03-11T16:31:01.858Z,99691.56
2023-03-11T16:42:25.532Z,99700.78
2023-03-11T16:47:26.920Z,99706.91
2023-03-11T16:52:28.504Z,99703.22
2023-03-11T16:57:30.224Z,99707.06
2023-03-11T17:02:31.601Z,99706.91
2023-03-11T17:07:33.317Z,99693.00
2023-03-11T17:12:36.009Z,99712.34
2023-03-11T17:17:37.392Z,99715.41
2023-03-11T17:22:39.185Z,99718.91
2023-03-11T17:27:40.555Z,99727.16
2023-03-11T17:32:41.985Z,99733.66
2023-03-11T17:37:43.389Z,99747.38
2023-03-11T17:42:45.270Z,99751.19
2023-03-11T17:47:46.693Z,99758.59
2023-03-11T17:52:48.853Z,99762.63
2023-03-11T17:57:51.819Z,99757.41
2023-03-11T18:02:53.292Z,99766.59
2023-03-11T18:07:54.683Z,99766.22
2023-03-11T18:12:56.047Z,99781.50
2023-03-11T18:17:57.817Z,99780.56
2023-03-11T18:22:59.208Z,99796.81
2023-03-11T18:28:00.648Z,99803.59
2023-03-11T18:33:02.095Z,99803.25
2023-03-11T18:38:03.595Z,99794.06
2023-03-11T18:43:05.163Z,99800.00
2023-03-11T18:48:06.862Z,99805.59
2023-03-11T18:53:08.242Z,99806.72
2023-03-11T18:58:10.696Z,99809.47
2023-03-11T19:03:12.206Z,99803.84
2023-03-11T19:08:14.394Z,99788.53
2023-03-11T19:13:19.271Z,99801.00
2023-03-11T19:18:20.860Z,99785.97
2023-03-11T19:23:22.286Z,99801.94
2023-03-11T19:28:24.246Z,99816.00
2023-03-11T19:33:26.245Z,99801.63
2023-03-11T19:38:28.094Z,99809.06
2023-03-11T19:43:29.773Z,99812.13
2023-03-11T19:48:33.068Z,99813.41
2023-03-11T19:53:37.326Z,99809.19
2023-03-11T19:58:40.821Z,99816.09
2023-03-11T20:03:42.940Z,99822.88
2023-03-11T20:08:44.332Z,99828.84
2023-03-11T20:13:45.700Z,99835.63
2023-03-11T20:18:51.115Z,99832.03
2023-03-11T20:23:56.656Z,99837.56
2023-03-11T20:28:58.013Z,99827.22
2023-03-11T20:34:00.950Z,99847.34
2023-03-11T20:39:03.935Z,99855.28
2023-03-11T20:44:07.928Z,99851.50
2023-03-11T20:49:10.079Z,99844.72
2023-03-11T20:54:11.994Z,99858.50
2023-03-11T20:59:16.486Z,99846.44
2023-03-11T21:04:18.186Z,99852.88
2023-03-11T21:09:19.831Z,99848.28
2023-03-11T21:14:21.273Z,99853.47
2023-03-11T21:19:23.145Z,99860.59
2023-03-11T21:24:24.515Z,99862.69
2023-03-11T21:29:26.292Z,99870.31
2023-03-11T21:34:27.741Z,99861.47
2023-03-11T21:39:29.254Z,99865.50
2023-03-11T21:44:31.007Z,99857.91
2023-03-11T21:49:32.669Z,99861.19
2023-03-11T21:54:34.057Z,99855.44
2023-03-11T21:59:35.420Z,99871.72
2023-03-11T22:04:36.883Z,99866.16
2023-03-11T22:09:38.597Z,99874.72
2023-03-11T22:14:40.160Z,99877.63
2023-03-11T22:19:41.717Z,99879.19
2023-03-11T22:24:43.086Z,99868.19
2023-03-11T22:29:44.493Z,99881.97
2023-03-11T22:34:45.955Z,99878.47
2023-03-11T22:39:47.252Z,99886.09
2023-03-11T22:44:48.874Z,99877.91
2023-03-11T22:49:50.211Z,99872.81
2023-03-11T22:54:51.627Z,99872.53
2023-03-11T22:59:53.014Z,99886.53
2023-03-11T23:04:54.385Z,99883.50
2023-03-11T23:09:55.915Z,99883.09
2023-03-11T23:14:57.295Z,99876.94
2023-03-11T23:19:59.129Z,99888.47
2023-03-11T23:25:06.646Z,99892.41
2023-03-11T23:30:09.954Z,99894.09
2023-03-11T23:35:11.964Z,99890.28
2023-03-11T23:40:13.439Z,99887.84
2023-03-11T23:45:14.832Z,99873.06
2023-03-11T23:50:16.338Z,99885.72
2023-03-11T23:55:17.786Z,99894.28
